Aérodrome :
LOGIN :

S'inscrire | Disclaimer

   EN    FR    IT 

 










Légende :    VFR   VFR Marginal   IFR   IFR Intensif   IFR Très Intensif
Visi : 
Plafond : 
>= 8 km
>= 3000ft
5 à 8 km
1000 à 3000 ft
1500m à 5 km
500 à 1000 ft
800 à 1500m
200 à 500 ft
< 800m
< 200 ft
Symboles :   Orages  Brouillard  Fortes neiges  Fortes précipitations  Vent > 20 kt
SIGMETs :   Divers  Orages  Givrage  Turbulence  Onde Orograph.  Cendres Volcan.






- Altitude de l'aérodrome : 408 ft
- Code IATA : FKB


EDSB - Karlsruhe Baden Baden

DERNIER METAR :
  • 060320Z AUTO 20003KT 9999 // NCD 03/01 Q1020

METARs EXPIRÉS :
  • 060250Z AUTO VRB01KT 9999 // NCD 04/01 Q1020
  • 060220Z AUTO 00000KT 9999 // NCD 05/01 Q1020
  • 060150Z AUTO 21003KT 9999 // NCD 05/01 Q1020
  • 060120Z AUTO 14002KT 9999 // NCD 05/01 Q1019
  • 060050Z AUTO 18003KT 9999 // NCD 06/01 Q1019
  • 060020Z AUTO VRB01KT 9999 // NCD 06/02 Q1019

TAF TAF EDSB
Valide du 05 à 18h jusqu'au 06 à 18h UTC


051700Z 0518/0618 02008KT CAVOK
BECMG 0520/0522 VRB03KT
BECMG 0612/0614 31005KT



MET'MAP, la Météo Aéronautique d'un coup d'oeil ! - Copyright ORBIFLY Décembre 2007 - Disclaimer

ORBIFLY MET'MAP TEAM :

Programmation & Développement : Alexandra Zaïnal
Sur une idée originale de : Baudouin d'Aumeries
Assistance à la programmation : Marc-Olivier Méhu
Soutien technique & logistique : Manuel Goepfert

Contact : metmap@orbifly.com




SOURCES & CREDITS :

   NOAA